createdAt,value
2022-12-27T00:01:47.130Z,101154.28
2022-12-27T00:04:15.084Z,101137.91
2022-12-27T00:06:43.511Z,101137.13
2022-12-27T00:09:12.852Z,101147.50
2022-12-27T00:11:40.845Z,101147.44
2022-12-27T00:14:09.300Z,101150.78
2022-12-27T00:16:38.417Z,101159.56
2022-12-27T00:19:06.797Z,101160.78
2022-12-27T00:21:36.264Z,101173.50
2022-12-27T00:24:04.317Z,101166.50
2022-12-27T00:26:35.932Z,101170.81
2022-12-27T00:29:03.980Z,101161.00
2022-12-27T00:31:33.535Z,101186.09
2022-12-27T00:34:03.614Z,101181.94
2022-12-27T00:36:32.724Z,101179.47
2022-12-27T00:39:01.718Z,101190.69
2022-12-27T00:41:29.734Z,101188.22
2022-12-27T00:43:59.027Z,101189.34
2022-12-27T00:46:27.123Z,101182.16
2022-12-27T00:48:55.481Z,101196.97
2022-12-27T00:51:25.823Z,101191.19
2022-12-27T00:53:54.911Z,101189.25
2022-12-27T00:56:24.638Z,101197.72
2022-12-27T00:58:55.136Z,101194.25
2022-12-27T01:01:26.242Z,101204.91
2022-12-27T01:03:54.571Z,101206.88
2022-12-27T01:06:25.766Z,101197.59
2022-12-27T01:08:53.686Z,101193.63
2022-12-27T01:11:22.136Z,101213.59
2022-12-27T01:13:50.257Z,101205.56
2022-12-27T01:16:20.516Z,101214.88
2022-12-27T01:18:50.728Z,101219.81
2022-12-27T01:21:22.148Z,101226.41
2022-12-27T01:23:53.453Z,101236.13
2022-12-27T01:26:24.098Z,101236.19
2022-12-27T01:28:53.089Z,101245.78
2022-12-27T01:31:22.991Z,101247.59
2022-12-27T01:33:55.705Z,101252.56
2022-12-27T01:36:25.738Z,101250.75
2022-12-27T01:38:55.270Z,101248.25
2022-12-27T01:41:42.179Z,101252.16
2022-12-27T01:44:55.904Z,101268.88
2022-12-27T01:47:34.290Z,101260.78
2022-12-27T01:50:11.257Z,101256.91
2022-12-27T01:52:44.013Z,101247.25
2022-12-27T01:55:18.944Z,101260.69
2022-12-27T01:57:48.399Z,101262.47
2022-12-27T02:00:17.252Z,101269.59
2022-12-27T02:02:45.427Z,101264.09
2022-12-27T02:05:18.330Z,101275.31
2022-12-27T02:08:02.137Z,101272.50
2022-12-27T02:10:31.473Z,101265.59
2022-12-27T02:13:00.479Z,101282.75
2022-12-27T02:15:29.193Z,101271.97
2022-12-27T02:17:57.335Z,101271.44
2022-12-27T02:20:32.233Z,101274.25
2022-12-27T02:23:50.770Z,101283.94
2022-12-27T02:26:40.066Z,101289.38
2022-12-27T02:29:17.750Z,101280.72
2022-12-27T02:31:53.076Z,101281.50
2022-12-27T02:34:25.825Z,101298.03
2022-12-27T02:37:00.044Z,101301.56
2022-12-27T02:39:30.313Z,101312.81
2022-12-27T02:42:21.533Z,101305.41
2022-12-27T02:45:13.683Z,101307.84
2022-12-27T02:47:59.029Z,101316.88
2022-12-27T02:50:53.394Z,101324.34
2022-12-27T02:53:31.483Z,101315.88
2022-12-27T02:56:30.733Z,101317.28
2022-12-27T02:59:14.364Z,101318.81
2022-12-27T03:02:12.402Z,101325.31
2022-12-27T03:05:00.601Z,101334.78
2022-12-27T03:07:38.903Z,101340.22
2022-12-27T03:10:44.135Z,101345.34
2022-12-27T03:13:42.556Z,101339.66
2022-12-27T03:16:19.067Z,101337.63
2022-12-27T03:19:11.732Z,101352.69
2022-12-27T03:22:01.955Z,101358.50
2022-12-27T03:24:51.221Z,101366.97
2022-12-27T03:27:28.301Z,101364.94
2022-12-27T03:30:16.569Z,101366.72
2022-12-27T03:33:08.512Z,101359.72
2022-12-27T03:35:42.910Z,101363.38
2022-12-27T03:38:13.746Z,101352.75
2022-12-27T03:41:08.190Z,101359.34
2022-12-27T03:43:37.956Z,101367.94
2022-12-27T03:46:33.136Z,101370.38
2022-12-27T03:49:10.543Z,101374.97
2022-12-27T03:51:43.631Z,101385.72
2022-12-27T03:54:17.932Z,101375.47
2022-12-27T03:56:45.923Z,101391.13
2022-12-27T03:59:14.197Z,101389.63
2022-12-27T04:01:43.055Z,101372.56
2022-12-27T04:04:11.071Z,101384.81
2022-12-27T04:06:40.706Z,101383.31
2022-12-27T04:09:28.167Z,101385.78
2022-12-27T04:12:13.872Z,101382.00
2022-12-27T04:14:59.165Z,101378.78
2022-12-27T04:17:44.883Z,101386.13
2022-12-27T04:20:31.060Z,101376.63
2022-12-27T04:23:17.617Z,101374.19
2022-12-27T04:26:03.396Z,101376.41
2022-12-27T04:28:48.614Z,101372.03
2022-12-27T04:31:34.926Z,101369.41
2022-12-27T04:34:20.491Z,101368.53
2022-12-27T04:36:48.808Z,101366.00
2022-12-27T04:39:18.150Z,101383.50
2022-12-27T04:42:03.683Z,101379.50
2022-12-27T04:44:48.827Z,101390.22
2022-12-27T04:47:39.236Z,101390.28
2022-12-27T04:50:31.805Z,101391.72
2022-12-27T04:53:17.099Z,101392.16
2022-12-27T04:55:46.379Z,101392.50
2022-12-27T04:58:14.281Z,101385.53
2022-12-27T05:01:13.947Z,101389.97
2022-12-27T05:03:43.039Z,101394.34
2022-12-27T05:06:11.120Z,101381.28
2022-12-27T05:08:56.783Z,101387.16
2022-12-27T05:11:44.588Z,101381.88
2022-12-27T05:14:15.606Z,101383.69
2022-12-27T05:16:45.549Z,101390.94
2022-12-27T05:19:15.101Z,101386.78
2022-12-27T05:22:05.662Z,101383.66
2022-12-27T05:24:51.293Z,101382.75
2022-12-27T05:27:20.811Z,101371.50
2022-12-27T05:29:48.793Z,101385.19
2022-12-27T05:32:16.828Z,101383.84
2022-12-27T05:34:44.876Z,101391.50
2022-12-27T05:37:12.831Z,101381.63
2022-12-27T05:39:40.826Z,101389.03
2022-12-27T05:42:08.814Z,101389.66
2022-12-27T05:44:38.085Z,101401.81
2022-12-27T05:47:06.110Z,101407.53
2022-12-27T05:49:34.044Z,101411.69
2022-12-27T05:52:01.953Z,101414.94
2022-12-27T05:54:29.859Z,101409.84
2022-12-27T05:56:57.957Z,101417.56
2022-12-27T05:59:25.945Z,101419.13
2022-12-27T06:01:55.397Z,101415.91
2022-12-27T06:04:23.486Z,101428.28
2022-12-27T06:06:51.560Z,101433.88
2022-12-27T06:09:19.457Z,101431.56
2022-12-27T06:11:47.322Z,101439.50
2022-12-27T06:14:15.338Z,101435.19
2022-12-27T06:16:43.458Z,101440.75
2022-12-27T06:19:12.815Z,101437.91
2022-12-27T06:21:40.837Z,101436.22
2022-12-27T06:24:09.094Z,101438.84
2022-12-27T06:26:38.619Z,101440.16
2022-12-27T06:29:06.618Z,101438.38
2022-12-27T06:31:34.737Z,101436.16
2022-12-27T06:34:02.701Z,101438.81
2022-12-27T06:36:32.672Z,101438.00
2022-12-27T06:39:01.179Z,101443.06
2022-12-27T06:41:29.212Z,101441.25
2022-12-27T06:43:59.045Z,101442.69
2022-12-27T06:46:27.088Z,101448.59
2022-12-27T06:48:55.075Z,101447.34
2022-12-27T06:51:23.081Z,101438.13
2022-12-27T06:53:52.489Z,101446.81
2022-12-27T06:56:21.873Z,101448.44
2022-12-27T06:58:51.577Z,101448.44
2022-12-27T07:01:22.349Z,101447.28
2022-12-27T07:03:51.612Z,101457.56
2022-12-27T07:06:20.329Z,101455.06
2022-12-27T07:08:48.748Z,101446.91
2022-12-27T07:11:20.282Z,101452.34
2022-12-27T07:13:50.133Z,101451.00
2022-12-27T07:16:21.033Z,101465.69
2022-12-27T07:18:50.062Z,101470.91
2022-12-27T07:21:20.907Z,101479.84
2022-12-27T07:23:49.259Z,101480.94
2022-12-27T07:26:20.869Z,101487.66
2022-12-27T07:28:49.147Z,101495.25
2022-12-27T07:31:20.216Z,101502.00
2022-12-27T07:33:48.200Z,101500.91
2022-12-27T07:36:19.291Z,101498.66
2022-12-27T07:38:47.347Z,101503.44
2022-12-27T07:41:15.682Z,101512.06
2022-12-27T07:43:46.094Z,101513.91
2022-12-27T07:46:16.143Z,101508.84
2022-12-27T07:48:44.757Z,101509.81
2022-12-27T07:51:13.098Z,101517.56
2022-12-27T07:53:41.254Z,101518.50
2022-12-27T07:56:11.167Z,101525.06
2022-12-27T07:58:40.157Z,101524.47
2022-12-27T08:01:10.936Z,101527.69
2022-12-27T08:03:40.098Z,101520.00
2022-12-27T08:06:09.495Z,101515.56
2022-12-27T08:08:40.517Z,101526.81
2022-12-27T08:11:08.487Z,101529.41
2022-12-27T08:13:36.595Z,101535.75
2022-12-27T08:16:05.431Z,101544.19
2022-12-27T08:18:35.463Z,101548.78
2022-12-27T08:21:03.363Z,101543.00
2022-12-27T08:23:31.208Z,101533.06
2022-12-27T08:25:59.106Z,101553.16
2022-12-27T08:28:28.175Z,101542.53
2022-12-27T08:30:56.219Z,101551.41
2022-12-27T08:33:24.911Z,101550.25
2022-12-27T08:35:57.032Z,101537.00
2022-12-27T08:38:24.909Z,101549.50
2022-12-27T08:40:52.883Z,101543.69
2022-12-27T08:43:20.817Z,101543.03
2022-12-27T08:45:48.806Z,101544.81
2022-12-27T08:48:16.935Z,101547.13
2022-12-27T08:50:45.045Z,101546.38
2022-12-27T08:53:14.428Z,101532.06
2022-12-27T08:55:42.338Z,101537.94
2022-12-27T08:58:16.029Z,101539.72
2022-12-27T09:00:44.737Z,101547.31
2022-12-27T09:03:12.677Z,101562.88
2022-12-27T09:05:42.091Z,101562.81
2022-12-27T09:08:10.759Z,101561.81
2022-12-27T09:10:40.203Z,101555.06
2022-12-27T09:13:08.181Z,101574.16
2022-12-27T09:15:36.141Z,101576.25
2022-12-27T09:18:04.107Z,101563.94
2022-12-27T09:20:32.101Z,101563.34
2022-12-27T09:23:00.077Z,101577.81
2022-12-27T09:25:28.081Z,101571.00
2022-12-27T09:27:57.371Z,101572.53
2022-12-27T09:30:25.322Z,101569.91
2022-12-27T09:32:53.226Z,101579.34
2022-12-27T09:35:21.112Z,101568.91
2022-12-27T09:37:49.043Z,101567.84
2022-12-27T09:40:20.185Z,101571.19
2022-12-27T09:43:09.447Z,101570.47
2022-12-27T09:45:47.782Z,101570.78
2022-12-27T09:48:27.698Z,101577.16
2022-12-27T09:51:02.843Z,101579.41
2022-12-27T09:53:40.120Z,101573.19
2022-12-27T09:56:11.007Z,101586.69
2022-12-27T09:58:45.666Z,101584.50
2022-12-27T10:01:19.969Z,101574.84
2022-12-27T10:03:48.449Z,101583.31
2022-12-27T10:06:33.725Z,101584.22
2022-12-27T10:09:12.534Z,101575.31
2022-12-27T10:11:50.297Z,101584.19
2022-12-27T10:14:31.268Z,101588.34
2022-12-27T10:17:08.949Z,101581.84
2022-12-27T10:19:45.965Z,101579.25
2022-12-27T10:22:23.422Z,101576.94
2022-12-27T10:24:56.308Z,101589.66
2022-12-27T10:27:27.120Z,101577.91
2022-12-27T10:29:57.743Z,101575.06
2022-12-27T10:32:27.995Z,101585.97
2022-12-27T10:34:57.765Z,101583.81
2022-12-27T10:37:25.780Z,101595.06
2022-12-27T10:39:53.886Z,101611.69
2022-12-27T10:42:35.268Z,101603.78
2022-12-27T10:45:29.348Z,101598.97
2022-12-27T10:48:11.194Z,101610.28
2022-12-27T10:50:40.034Z,101619.84
2022-12-27T10:53:37.136Z,101615.97
2022-12-27T10:56:11.085Z,101623.25
2022-12-27T10:58:41.560Z,101620.78
2022-12-27T11:01:17.722Z,101623.25
2022-12-27T11:03:47.124Z,101624.84
2022-12-27T11:06:22.063Z,101616.47
2022-12-27T11:08:51.886Z,101615.44
2022-12-27T11:11:22.416Z,101629.91
2022-12-27T11:13:50.512Z,101622.41
2022-12-27T11:16:27.337Z,101623.63
2022-12-27T11:18:59.359Z,101627.16
2022-12-27T11:21:30.275Z,101629.88
2022-12-27T11:24:01.760Z,101632.72
2022-12-27T11:26:35.109Z,101649.44
2022-12-27T11:29:03.932Z,101641.84
2022-12-27T11:31:36.224Z,101630.25
2022-12-27T11:34:14.144Z,101629.38
2022-12-27T11:36:47.280Z,101650.81
2022-12-27T11:39:47.553Z,101643.91
2022-12-27T11:42:24.994Z,101642.16
2022-12-27T11:45:04.169Z,101646.50
2022-12-27T11:47:38.967Z,101648.09
2022-12-27T11:50:38.251Z,101643.44
2022-12-27T11:53:15.685Z,101627.59
2022-12-27T11:55:58.436Z,101646.22
2022-12-27T11:58:44.655Z,101643.44
2022-12-27T12:01:30.679Z,101642.56
2022-12-27T12:04:33.027Z,101629.34
2022-12-27T12:07:12.673Z,101630.50
2022-12-27T12:09:56.767Z,101644.28
2022-12-27T12:12:49.428Z,101634.38
2022-12-27T12:15:38.873Z,101638.63
2022-12-27T12:18:23.440Z,101648.78
2022-12-27T12:21:23.890Z,101660.78
2022-12-27T12:24:09.810Z,101655.56
2022-12-27T12:26:55.684Z,101664.75
2022-12-27T12:29:53.135Z,101666.22
2022-12-27T12:32:34.345Z,101663.22
2022-12-27T12:35:17.939Z,101676.25
2022-12-27T12:38:02.801Z,101677.88
2022-12-27T12:41:01.543Z,101673.47
2022-12-27T12:43:48.849Z,101670.22
2022-12-27T12:46:28.416Z,101675.19
2022-12-27T12:49:19.523Z,101675.66
2022-12-27T12:52:08.469Z,101662.13
2022-12-27T12:54:56.027Z,101673.06
2022-12-27T12:57:42.718Z,101672.41
2022-12-27T13:00:25.077Z,101682.50
2022-12-27T13:03:31.054Z,101686.53
2022-12-27T13:06:04.684Z,101672.19
2022-12-27T13:08:40.913Z,101698.56
2022-12-27T13:11:30.090Z,101678.06
2022-12-27T13:14:17.267Z,101678.19
2022-12-27T13:16:53.754Z,101680.06
2022-12-27T13:19:39.176Z,101707.16
2022-12-27T13:22:16.539Z,101697.34
2022-12-27T13:25:04.552Z,101690.84
2022-12-27T13:27:40.351Z,101703.47
2022-12-27T13:30:21.224Z,101699.81
2022-12-27T13:33:09.562Z,101702.03
2022-12-27T13:35:51.603Z,101695.41
2022-12-27T13:38:36.808Z,101694.56
2022-12-27T13:41:39.919Z,101704.56
2022-12-27T13:44:21.906Z,101706.69
2022-12-27T13:47:13.319Z,101699.81
2022-12-27T13:49:59.798Z,101703.31
2022-12-27T13:52:45.652Z,101702.50
2022-12-27T13:55:31.726Z,101717.47
2022-12-27T13:58:22.766Z,101705.56
2022-12-27T14:00:59.180Z,101704.00
2022-12-27T14:03:50.844Z,101714.63
2022-12-27T14:06:57.362Z,101719.59
2022-12-27T14:09:49.527Z,101728.31
2022-12-27T14:12:51.971Z,101723.13
2022-12-27T14:15:23.334Z,101717.78
2022-12-27T14:18:03.365Z,101719.75
2022-12-27T14:20:46.284Z,101726.72
2022-12-27T14:23:40.026Z,101722.28
2022-12-27T14:26:49.455Z,101718.75
2022-12-27T14:29:40.356Z,101737.22
2022-12-27T14:32:37.546Z,101726.78
2022-12-27T14:35:46.907Z,101731.50
2022-12-27T14:38:56.750Z,101738.06
2022-12-27T14:42:08.536Z,101747.13
2022-12-27T14:45:11.209Z,101741.34
2022-12-27T14:48:06.036Z,101753.25
2022-12-27T14:51:50.423Z,101749.72
2022-12-27T14:54:42.222Z,101758.09
2022-12-27T14:57:33.529Z,101755.22
2022-12-27T15:00:12.343Z,101748.88
2022-12-27T15:02:57.804Z,101758.81
2022-12-27T15:05:37.688Z,101758.47
2022-12-27T15:08:44.198Z,101758.88
2022-12-27T15:11:38.759Z,101770.41
2022-12-27T15:14:27.719Z,101771.19
2022-12-27T15:17:07.643Z,101773.66
2022-12-27T15:20:08.135Z,101775.72
2022-12-27T15:22:52.897Z,101766.53
2022-12-27T15:25:29.730Z,101768.19
2022-12-27T15:28:06.869Z,101762.00
2022-12-27T15:30:46.338Z,101766.84
2022-12-27T15:33:23.427Z,101757.91
2022-12-27T15:35:56.897Z,101758.31
2022-12-27T15:38:52.873Z,101768.41
2022-12-27T15:41:41.081Z,101757.97
2022-12-27T15:44:43.201Z,101752.00
2022-12-27T15:47:29.483Z,101750.50
2022-12-27T15:50:30.948Z,101757.47
2022-12-27T15:53:13.905Z,101754.03
2022-12-27T15:56:11.699Z,101751.78
2022-12-27T15:58:40.360Z,101757.44
2022-12-27T16:01:29.580Z,101747.06
2022-12-27T16:03:59.453Z,101759.50
2022-12-27T16:06:51.709Z,101756.69
2022-12-27T16:09:32.680Z,101757.28
2022-12-27T16:12:05.849Z,101754.91
2022-12-27T16:14:38.318Z,101746.66
2022-12-27T16:17:27.995Z,101743.34
2022-12-27T16:20:14.426Z,101751.53
2022-12-27T16:22:45.600Z,101753.69
2022-12-27T16:25:30.571Z,101748.75
2022-12-27T16:28:06.219Z,101752.41
2022-12-27T16:30:39.822Z,101753.28
2022-12-27T16:33:24.221Z,101756.16
2022-12-27T16:36:24.431Z,101751.16
2022-12-27T16:39:15.356Z,101755.09
2022-12-27T16:42:01.735Z,101751.66
2022-12-27T16:44:48.563Z,101755.63
2022-12-27T16:47:41.651Z,101765.63
2022-12-27T16:50:34.780Z,101766.03
2022-12-27T16:53:37.002Z,101768.66
2022-12-27T16:56:16.009Z,101763.66
2022-12-27T16:58:44.230Z,101768.31
2022-12-27T17:01:56.722Z,101772.72
2022-12-27T17:04:53.300Z,101765.44
2022-12-27T17:07:51.639Z,101764.94
2022-12-27T17:10:56.358Z,101757.84
2022-12-27T17:13:46.184Z,101765.38
2022-12-27T17:16:22.689Z,101756.56
2022-12-27T17:18:56.124Z,101762.91
2022-12-27T17:21:30.378Z,101770.66
2022-12-27T17:24:02.503Z,101763.56
2022-12-27T17:26:58.970Z,101758.31
2022-12-27T17:29:41.167Z,101764.13
2022-12-27T17:32:20.781Z,101762.47
2022-12-27T17:34:58.145Z,101761.16
2022-12-27T17:37:33.405Z,101776.81
2022-12-27T17:40:22.138Z,101781.16
2022-12-27T17:43:22.253Z,101773.25
2022-12-27T17:45:57.953Z,101783.53
2022-12-27T17:48:29.231Z,101781.19
2022-12-27T17:51:01.953Z,101775.56
2022-12-27T17:53:47.362Z,101767.59
2022-12-27T17:56:39.774Z,101774.03
2022-12-27T17:59:13.491Z,101772.13
2022-12-27T18:01:48.464Z,101768.97
2022-12-27T18:04:24.264Z,101765.09
2022-12-27T18:06:55.702Z,101758.06
2022-12-27T18:09:36.489Z,101759.13
2022-12-27T18:12:12.187Z,101765.72
2022-12-27T18:14:40.318Z,101768.75
2022-12-27T18:17:08.321Z,101781.84
2022-12-27T18:19:36.288Z,101764.97
2022-12-27T18:22:04.382Z,101776.75
2022-12-27T18:24:34.511Z,101766.59
2022-12-27T18:27:06.498Z,101780.59
2022-12-27T18:29:35.182Z,101765.03
2022-12-27T18:32:08.707Z,101762.53
2022-12-27T18:34:42.290Z,101765.97
2022-12-27T18:37:13.097Z,101756.44
2022-12-27T18:39:47.802Z,101759.19
2022-12-27T18:42:20.249Z,101764.81
2022-12-27T18:44:53.035Z,101759.78
2022-12-27T18:47:23.537Z,101762.41
2022-12-27T18:49:56.874Z,101760.22
2022-12-27T18:52:30.912Z,101759.22
2022-12-27T18:55:07.211Z,101762.59
2022-12-27T18:57:37.858Z,101757.09
2022-12-27T19:00:21.478Z,101760.63
2022-12-27T19:02:50.743Z,101764.94
2022-12-27T19:05:28.405Z,101771.03
2022-12-27T19:08:00.958Z,101757.72
2022-12-27T19:10:33.365Z,101764.06
2022-12-27T19:13:03.687Z,101761.84
2022-12-27T19:15:41.101Z,101759.09
2022-12-27T19:18:23.070Z,101754.91
2022-12-27T19:20:55.814Z,101747.53
2022-12-27T19:23:30.364Z,101745.00
2022-12-27T19:25:59.675Z,101744.91
2022-12-27T19:28:30.313Z,101745.94
2022-12-27T19:31:09.583Z,101738.19
2022-12-27T19:33:37.792Z,101742.31
2022-12-27T19:36:10.085Z,101739.75
2022-12-27T19:38:47.479Z,101749.84
2022-12-27T19:41:16.186Z,101746.09
2022-12-27T19:43:47.597Z,101755.84
2022-12-27T19:46:18.891Z,101754.78
2022-12-27T19:49:01.066Z,101752.44
2022-12-27T19:51:37.082Z,101750.16
2022-12-27T19:54:08.832Z,101755.41
2022-12-27T19:56:36.801Z,101747.75
2022-12-27T19:59:06.126Z,101753.72
2022-12-27T20:01:34.931Z,101747.28
2022-12-27T20:04:02.895Z,101737.19
2022-12-27T20:06:30.866Z,101738.91
2022-12-27T20:08:58.845Z,101729.84
2022-12-27T20:11:30.709Z,101740.72
2022-12-27T20:13:58.684Z,101740.53
2022-12-27T20:16:28.505Z,101733.88
2022-12-27T20:18:56.541Z,101733.31
2022-12-27T20:21:26.849Z,101740.25
2022-12-27T20:23:54.766Z,101730.63
2022-12-27T20:26:25.809Z,101725.41
2022-12-27T20:28:54.707Z,101739.34
2022-12-27T20:31:23.152Z,101727.84
2022-12-27T20:33:57.139Z,101728.88
2022-12-27T20:36:25.635Z,101728.47
2022-12-27T20:38:53.684Z,101724.00
2022-12-27T20:41:22.938Z,101729.06
2022-12-27T20:43:55.667Z,101729.28
2022-12-27T20:46:24.684Z,101731.84
2022-12-27T20:48:57.861Z,101730.84
2022-12-27T20:51:28.234Z,101729.19
2022-12-27T20:53:57.485Z,101722.91
2022-12-27T20:56:26.060Z,101714.53
2022-12-27T20:58:54.163Z,101706.25
2022-12-27T21:01:24.558Z,101710.03
2022-12-27T21:03:54.275Z,101715.00
2022-12-27T21:06:28.523Z,101712.13
2022-12-27T21:08:58.575Z,101705.13
2022-12-27T21:11:28.924Z,101702.38
2022-12-27T21:13:56.932Z,101707.47
2022-12-27T21:16:27.047Z,101706.44
2022-12-27T21:18:56.194Z,101706.78
2022-12-27T21:21:28.865Z,101698.75
2022-12-27T21:23:57.581Z,101688.88
2022-12-27T21:26:27.827Z,101698.88
2022-12-27T21:28:56.453Z,101694.31
2022-12-27T21:31:24.842Z,101690.19
2022-12-27T21:33:55.475Z,101684.88
2022-12-27T21:36:26.173Z,101682.06
2022-12-27T21:38:54.959Z,101683.50
2022-12-27T21:41:25.520Z,101682.84
2022-12-27T21:43:54.075Z,101682.59
2022-12-27T21:46:24.671Z,101677.06
2022-12-27T21:48:56.047Z,101686.09
2022-12-27T21:51:26.553Z,101672.81
2022-12-27T21:53:54.601Z,101679.25
2022-12-27T21:56:22.875Z,101675.88
2022-12-27T21:58:51.533Z,101685.00
2022-12-27T22:01:21.661Z,101687.63
2022-12-27T22:03:51.544Z,101686.28
2022-12-27T22:06:22.404Z,101677.31
2022-12-27T22:08:53.205Z,101676.19
2022-12-27T22:11:23.067Z,101676.94
2022-12-27T22:13:51.608Z,101676.94
2022-12-27T22:16:21.787Z,101660.13
2022-12-27T22:18:50.577Z,101670.16
2022-12-27T22:21:20.407Z,101653.44
2022-12-27T22:23:50.109Z,101648.06
2022-12-27T22:26:21.429Z,101640.06
2022-12-27T22:28:49.471Z,101636.88
2022-12-27T22:31:19.680Z,101632.44
2022-12-27T22:33:48.454Z,101629.66
2022-12-27T22:36:18.909Z,101619.25
2022-12-27T22:38:49.729Z,101622.19
2022-12-27T22:41:25.872Z,101621.41
2022-12-27T22:43:55.627Z,101621.91
2022-12-27T22:46:24.585Z,101623.34
2022-12-27T22:48:57.317Z,101615.84
2022-12-27T22:51:27.574Z,101617.78
2022-12-27T22:53:56.932Z,101620.06
2022-12-27T22:56:28.454Z,101612.53
2022-12-27T22:58:56.406Z,101613.56
2022-12-27T23:01:27.680Z,101618.00
2022-12-27T23:03:56.121Z,101609.41
2022-12-27T23:06:24.520Z,101601.09
2022-12-27T23:08:55.537Z,101597.81
2022-12-27T23:11:27.504Z,101602.13
2022-12-27T23:13:56.862Z,101587.22
2022-12-27T23:16:25.181Z,101586.47
2022-12-27T23:18:53.479Z,101589.25
2022-12-27T23:21:24.393Z,101578.50
2022-12-27T23:23:53.571Z,101584.91
2022-12-27T23:26:22.927Z,101585.00
2022-12-27T23:28:53.519Z,101592.84
2022-12-27T23:31:23.504Z,101583.47
2022-12-27T23:33:52.237Z,101584.91
2022-12-27T23:36:20.987Z,101578.00
2022-12-27T23:38:49.636Z,101562.13
2022-12-27T23:41:20.069Z,101566.28
2022-12-27T23:43:53.344Z,101562.84
2022-12-27T23:46:25.234Z,101555.88
2022-12-27T23:48:53.246Z,101549.78
2022-12-27T23:51:22.025Z,101546.28
2022-12-27T23:53:50.290Z,101546.81
2022-12-27T23:56:20.459Z,101550.91
2022-12-27T23:58:49.511Z,101550.44
